Glenrothes, United Kingdom
Current Conditions -  °F | °C
As of 11:50 AM on Friday 21 Nov 2014 (Local Time) from EGQL Reporting Station
Light Rain Light Rain  
Wind Chill: 43°   Ceiling: 4400
Heat Index: 48°   Visibility: 6mi
Dew Point: 46°   Wind: 12mph
Humidity: 93%   Direction: 140°SE
Pressure: 30.09"   Gusts: NA
Location:  56.2°N, 3.17°W
Report Text: EGQL 211150Z 14010KT 9999 -RA FEW016 BKN044 09/08 Q1019 BLU
Loading
Personal Weather Stations






























Interactive Weather Map New forecast layout! Learn more

10-Day Weather Forecast

Advertisements
Track Severe Weather on mobile